Main page
METAR-TAF:

METAR-TAF

Airports :

Çorlu, Turkey

Tekirdağ Çorlu Airport

latitude: 41-08N, longitude: 027-55E, elevation: 173 m

Current weather observation

The report was made 36 minutes ago, at 16:50 UTC
Wind 9 kt from the North/Northeast
Temperature 24°C
Humidity 65%
Pressure 1011 hPa
Visibility 10 km or more
no clouds below 1500 m and no cumulonimbus

METAR: LTBU 261650Z 02009KT CAVOK 24/17 Q1011 RMK RWY23 06008KT

Time: 20:26 (17:26 UTC)

Forecast

The report was made 6 hours and 46 minutes ago, at 10:40 UTC
Forecast valid from 26 at 12 UTC to 27 at 12 UTC
Wind 12 kt from the North
Visibility 10 km or more
no clouds below 1500 m and no cumulonimbus
Becoming
from 26 at 14 UTC to 26 at 17 UTC
Wind 2 kt from variable directions
Probability 30%
from 27 at 01 UTC to 27 at 05 UTC
Visibility: 4000 m
mist

TAF: LTBU 261040Z 2612/2712 01012KT CAVOK BECMG 2614/2617 VRB02KT PROB30 2701/2705 4000 BR

Weather observations and forecasts of more than 4000 airports (METAR and TAF reports).

The available stations are represented by yellow and red dots on the map.

Hover mouse over dot to see the name of the station.

Then click to see weather observations and forecasts.

To change the map : click on the green buttons with a black cross to zoom in, on the green button with a dash to zoom out, or on the green arrows for adjacent maps.


METAR-TAF: